Time;durP1;ratioP1;P1;durP2;ratioP2;P2;SDS_P1;SDS_P2;PMS_P1;PMS_P2;Temp;Humidity;BMP_temperature;BMP_pressure;BME280_temperature;BME280_humidity;BME280_pressure;Samples;Min_cycle;Max_cycle;Signal;HPM_P1;HPM_P2
2024/01/30 00:00:12;;;;;;;9.90;6.13;;;;;;;0.01;58.20;96517.81;4194637;28;20060;-67
2024/01/30 00:02:14;;;;;;;8.32;5.63;;;;;;;-0.14;58.37;96524.31;4182851;28;20053;-67
2024/01/30 00:04:16;;;;;;;7.50;5.63;;;;;;;-0.23;58.26;96522.03;4189319;28;20052;-68
2024/01/30 00:06:20;;;;;;;8.63;5.45;;;;;;;-0.28;58.31;96522.19;4192194;28;20099;-68
2024/01/30 00:08:22;;;;;;;7.78;5.78;;;;;;;-0.33;59.07;96531.78;4191859;28;20056;-67
2024/01/30 00:10:24;;;;;;;8.32;5.80;;;;;;;-0.37;58.75;96529.34;4191669;28;20052;-68
2024/01/30 00:12:26;;;;;;;9.73;5.65;;;;;;;-0.37;58.99;96519.03;4187155;28;20118;-67
2024/01/30 00:14:29;;;;;;;8.82;5.90;;;;;;;-0.26;58.64;96519.53;4189678;28;20094;-68
2024/01/30 00:16:34;;;;;;;9.32;5.65;;;;;;;-0.37;59.06;96522.44;4179730;28;20057;-70
2024/01/30 00:18:36;;;;;;;8.93;5.60;;;;;;;-0.30;58.63;96523.09;4185911;28;20090;-66
2024/01/30 00:20:38;;;;;;;7.72;5.38;;;;;;;-0.29;58.50;96527.38;4182628;28;20054;-65
2024/01/30 00:22:40;;;;;;;7.97;5.55;;;;;;;-0.34;58.76;96526.69;4189904;28;20398;-68
2024/01/30 00:24:41;;;;;;;7.82;5.72;;;;;;;-0.27;58.39;96530.75;4191439;28;20136;-66
2024/01/30 00:26:43;;;;;;;7.68;5.78;;;;;;;-0.26;58.63;96528.13;4183692;28;20054;-67
2024/01/30 00:28:45;;;;;;;7.10;5.20;;;;;;;-0.21;58.05;96530.56;4179828;28;20040;-68
2024/01/30 00:30:49;;;;;;;8.45;5.55;;;;;;;-0.13;58.17;96523.44;4186621;28;20051;-68
2024/01/30 00:32:51;;;;;;;8.40;5.45;;;;;;;0.07;57.85;96521.94;4187233;28;20045;-68
2024/01/30 00:34:53;;;;;;;8.55;5.50;;;;;;;0.13;57.42;96521.72;4187877;28;20044;-67
2024/01/30 00:36:55;;;;;;;8.38;5.35;;;;;;;0.22;57.33;96520.59;4188859;28;20060;-68
2024/01/30 00:38:57;;;;;;;7.82;5.25;;;;;;;0.14;57.24;96524.25;4191243;28;20052;-68
2024/01/30 00:40:59;;;;;;;9.05;5.93;;;;;;;0.19;57.12;96521.50;4193627;28;20044;-68
2024/01/30 00:43:02;;;;;;;6.53;4.85;;;;;;;0.32;57.21;96517.66;4190064;28;20379;-65
2024/01/30 00:45:04;;;;;;;8.27;5.03;;;;;;;0.51;56.77;96522.16;4186944;28;20052;-67
2024/01/30 00:47:06;;;;;;;8.55;5.55;;;;;;;0.56;56.84;96522.84;4193756;28;20047;-68
2024/01/30 00:49:08;;;;;;;7.30;5.15;;;;;;;0.64;56.25;96517.41;4184684;28;20346;-68
2024/01/30 00:51:11;;;;;;;7.50;5.32;;;;;;;0.71;56.26;96524.91;4193986;28;20040;-68
2024/01/30 00:53:16;;;;;;;9.30;5.78;;;;;;;0.79;55.93;96514.28;4195746;28;20506;-66
2024/01/30 00:55:19;;;;;;;7.53;5.20;;;;;;;0.92;55.39;96520.69;4194371;28;20415;-68
2024/01/30 00:57:22;;;;;;;9.82;5.88;;;;;;;0.91;55.33;96520.78;4195722;28;20098;-67
2024/01/30 00:59:26;;;;;;;7.37;5.40;;;;;;;0.91;55.53;96518.19;4187826;28;20044;-68
2024/01/30 01:01:27;;;;;;;8.63;6.03;;;;;;;0.96;55.68;96521.44;4193452;28;20285;-65
2024/01/30 01:03:31;;;;;;;7.80;6.10;;;;;;;1.07;55.55;96526.19;4187183;28;20053;-68
2024/01/30 01:05:33;;;;;;;7.75;5.35;;;;;;;1.11;55.44;96520.88;4186289;28;20059;-68
2024/01/30 01:07:35;;;;;;;8.15;5.70;;;;;;;1.12;54.77;96522.56;4190160;28;20041;-67
2024/01/30 01:09:39;;;;;;;10.40;6.10;;;;;;;0.90;55.25;96511.31;4194410;28;20045;-68
2024/01/30 01:11:41;;;;;;;8.30;6.10;;;;;;;0.77;55.68;96521.25;4188365;28;20053;-67
2024/01/30 01:13:43;;;;;;;8.02;6.00;;;;;;;0.80;55.86;96516.81;4193660;28;20048;-67
2024/01/30 01:15:46;;;;;;;7.75;5.72;;;;;;;0.84;55.77;96519.28;4189225;28;20049;-66
2024/01/30 01:17:48;;;;;;;7.85;5.97;;;;;;;0.87;55.63;96514.03;4191021;28;20662;-66
2024/01/30 01:19:50;;;;;;;8.52;6.22;;;;;;;0.92;56.55;96517.28;4192897;28;20083;-67
2024/01/30 01:21:53;;;;;;;12.75;6.13;;;;;;;1.05;56.07;96518.50;4189276;28;20473;-66
2024/01/30 01:23:54;;;;;;;9.55;6.03;;;;;;;1.19;55.43;96523.16;4194068;28;20052;-69
2024/01/30 01:25:56;;;;;;;7.03;5.57;;;;;;;1.27;55.08;96525.44;4184157;28;20150;-65
2024/01/30 01:28:04;;;;;;;8.43;5.93;;;;;;;1.30;54.55;96522.78;4189883;28;20500;-67
2024/01/30 01:30:08;;;;;;;;;;;;;;;1.31;54.71;96519.28;4183428;28;20453;-67
2024/01/30 01:32:11;;;;;;;7.68;5.43;;;;;;;1.31;54.92;96521.84;4189135;28;19992;-67
2024/01/30 01:34:13;;;;;;;8.18;5.75;;;;;;;1.22;54.78;96521.28;4182158;28;20589;-65
2024/01/30 01:36:15;;;;;;;7.85;5.88;;;;;;;1.18;54.78;96522.34;4191143;28;20048;-66
2024/01/30 01:38:17;;;;;;;7.65;5.60;;;;;;;1.18;54.96;96517.19;4187262;28;20097;-68
2024/01/30 01:40:19;;;;;;;8.27;5.80;;;;;;;1.18;55.18;96522.34;4189253;28;20478;-67
2024/01/30 01:42:22;;;;;;;7.38;5.80;;;;;;;1.18;54.82;96526.63;4190337;28;20063;-67
2024/01/30 01:44:25;;;;;;;8.15;5.93;;;;;;;1.00;54.79;96525.59;4191346;28;20454;-67
2024/01/30 01:46:30;;;;;;;8.18;5.78;;;;;;;0.86;55.36;96514.91;4191534;28;20681;-67
2024/01/30 01:48:33;;;;;;;8.45;6.13;;;;;;;0.82;55.30;96521.94;4192135;28;20040;-67
2024/01/30 01:50:35;;;;;;;8.35;5.95;;;;;;;0.75;55.30;96508.44;4192979;28;20052;-67
2024/01/30 01:52:38;;;;;;;8.13;5.85;;;;;;;0.71;55.80;96517.16;4194091;28;20112;-68
2024/01/30 01:54:41;;;;;;;6.80;5.30;;;;;;;0.75;55.83;96512.72;4190600;28;20066;-66
2024/01/30 01:56:43;;;;;;;6.93;5.40;;;;;;;0.51;56.02;96524.75;4192511;28;20048;-68
2024/01/30 01:58:46;;;;;;;7.53;5.80;;;;;;;0.47;56.12;96525.75;4192138;28;20045;-68
2024/01/30 02:00:48;;;;;;;8.15;5.57;;;;;;;0.41;55.93;96524.22;4191855;28;20056;-67
2024/01/30 02:02:50;;;;;;;7.97;5.60;;;;;;;0.42;56.58;96530.22;4193805;28;20053;-67
2024/01/30 02:04:52;;;;;;;8.27;5.47;;;;;;;0.24;56.72;96527.38;4164960;28;20169;-68
2024/01/30 02:06:54;;;;;;;7.20;4.97;;;;;;;0.09;57.22;96526.16;4194735;28;20044;-68
2024/01/30 02:08:56;;;;;;;8.65;5.70;;;;;;;0.06;57.11;96528.81;4177469;28;20048;-67
2024/01/30 02:10:59;;;;;;;8.63;5.50;;;;;;;0.15;56.79;96535.41;4188682;28;20072;-67
2024/01/30 02:13:01;;;;;;;7.85;5.55;;;;;;;0.15;57.07;96537.97;4188726;28;20072;-68
2024/01/30 02:15:04;;;;;;;6.97;5.13;;;;;;;-0.06;57.12;96524.91;4187738;28;20077;-67
2024/01/30 02:17:06;;;;;;;7.47;5.60;;;;;;;0.03;57.25;96531.50;4193574;28;20052;-66
2024/01/30 02:19:09;;;;;;;7.63;5.68;;;;;;;-0.26;58.19;96535.00;4189410;28;20049;-67
2024/01/30 02:21:11;;;;;;;7.88;5.32;;;;;;;-0.42;57.83;96532.06;4193250;28;20044;-67
2024/01/30 02:23:15;;;;;;;6.68;4.85;;;;;;;-0.30;57.79;96534.28;4178945;28;20656;-67
2024/01/30 02:25:18;;;;;;;7.03;5.60;;;;;;;-0.31;58.11;96531.72;4180417;28;20056;-67
2024/01/30 02:27:20;;;;;;;6.53;4.90;;;;;;;-0.32;57.86;96527.44;4190655;28;20044;-67
2024/01/30 02:29:22;;;;;;;9.07;6.25;;;;;;;-0.28;57.11;96519.63;4193849;28;20135;-65
2024/01/30 02:31:25;;;;;;;7.40;5.13;;;;;;;-0.34;57.71;96518.97;4190120;28;20048;-66
2024/01/30 02:33:27;;;;;;;8.13;5.82;;;;;;;-0.29;57.48;96517.91;4190023;28;20106;-68
2024/01/30 02:35:29;;;;;;;7.60;5.13;;;;;;;-0.34;58.17;96521.53;4188479;28;20127;-66
2024/01/30 02:37:31;;;;;;;11.13;5.30;;;;;;;-0.32;57.53;96517.16;4194031;28;20048;-67
2024/01/30 02:39:33;;;;;;;7.20;4.78;;;;;;;-0.17;57.27;96520.97;4191502;28;20044;-67
2024/01/30 02:41:34;;;;;;;6.88;5.10;;;;;;;-0.01;56.94;96523.00;4183919;28;20044;-68
2024/01/30 02:43:36;;;;;;;8.52;5.13;;;;;;;0.05;56.54;96519.41;4189957;28;20158;-68
2024/01/30 02:45:38;;;;;;;8.68;5.03;;;;;;;-0.04;56.72;96519.72;4190703;28;20041;-67
2024/01/30 02:47:41;;;;;;;8.55;5.13;;;;;;;-0.28;57.53;96518.75;4191479;28;20076;-67
2024/01/30 02:49:43;;;;;;;6.50;4.57;;;;;;;-0.22;57.39;96528.84;4192352;28;20388;-67
2024/01/30 02:51:45;;;;;;;6.50;4.53;;;;;;;-0.01;57.39;96523.00;4188006;28;20055;-68
2024/01/30 02:53:47;;;;;;;7.25;5.07;;;;;;;0.22;56.55;96521.44;4193598;28;20120;-67
2024/01/30 02:55:50;;;;;;;8.67;4.87;;;;;;;0.08;56.81;96516.72;4192872;28;20472;-68
2024/01/30 02:57:52;;;;;;;8.20;5.43;;;;;;;0.16;56.37;96526.78;4191671;28;20055;-68
2024/01/30 02:59:54;;;;;;;6.22;4.47;;;;;;;0.03;56.51;96528.09;4183384;28;20076;-68
2024/01/30 03:01:56;;;;;;;7.32;4.50;;;;;;;0.10;56.32;96524.41;4191625;28;20041;-69
2024/01/30 03:03:59;;;;;;;6.28;4.70;;;;;;;0.14;56.44;96521.66;4193723;28;20049;-69
2024/01/30 03:06:01;;;;;;;6.13;4.80;;;;;;;0.20;56.15;96525.78;4192600;28;20049;-68
2024/01/30 03:08:05;;;;;;;7.32;4.97;;;;;;;0.30;56.01;96516.88;4185597;28;20041;-68
2024/01/30 03:10:08;;;;;;;6.68;4.10;;;;;;;0.46;55.80;96511.19;4189721;28;20041;-69
2024/01/30 03:12:10;;;;;;;5.85;4.40;;;;;;;0.39;55.39;96513.13;4183412;28;20052;-69
2024/01/30 03:14:13;;;;;;;7.30;5.13;;;;;;;0.33;55.76;96513.34;4189743;28;20087;-68
2024/01/30 03:16:15;;;;;;;6.65;4.90;;;;;;;0.39;55.62;96518.28;4184558;28;20059;-67
2024/01/30 03:18:17;;;;;;;6.30;4.75;;;;;;;0.55;56.19;96513.44;4191240;28;20490;-67
2024/01/30 03:20:19;;;;;;;7.55;5.25;;;;;;;0.38;54.88;96512.25;4189885;28;20056;-67
2024/01/30 03:22:21;;;;;;;7.60;4.60;;;;;;;0.49;55.24;96511.06;4191708;28;20135;-67
2024/01/30 03:24:24;;;;;;;6.90;4.90;;;;;;;0.40;54.32;96513.06;4191705;28;20048;-66
2024/01/30 03:26:26;;;;;;;7.15;4.88;;;;;;;0.27;55.21;96516.94;4188716;28;20478;-66
2024/01/30 03:28:28;;;;;;;7.28;4.43;;;;;;;0.40;55.12;96517.38;4191836;28;20162;-67
2024/01/30 03:30:30;;;;;;;7.15;4.50;;;;;;;0.47;54.46;96520.59;4183751;28;20044;-66
2024/01/30 03:32:32;;;;;;;7.38;4.50;;;;;;;0.52;54.73;96514.38;4189619;28;20059;-68
2024/01/30 03:34:34;;;;;;;6.93;4.13;;;;;;;0.42;54.19;96507.03;4186899;28;20051;-67
2024/01/30 03:36:36;;;;;;;7.38;4.90;;;;;;;0.31;54.88;96508.22;4185978;28;20118;-67
2024/01/30 03:38:38;;;;;;;6.90;4.75;;;;;;;0.36;54.94;96506.31;4190298;28;20491;-65
2024/01/30 03:40:41;;;;;;;8.15;4.60;;;;;;;0.50;54.38;96507.59;4185305;28;20091;-66
2024/01/30 03:42:43;;;;;;;6.20;4.30;;;;;;;0.37;53.71;96510.59;4186693;28;20495;-67
2024/01/30 03:44:45;;;;;;;5.80;3.80;;;;;;;0.44;54.19;96507.81;4192397;28;20082;-67
2024/01/30 03:46:48;;;;;;;6.45;3.92;;;;;;;0.47;54.44;96502.53;4191421;28;20136;-67
2024/01/30 03:48:50;;;;;;;6.10;4.53;;;;;;;0.46;54.12;96500.88;4190658;28;20052;-68
2024/01/30 03:50:52;;;;;;;6.07;3.83;;;;;;;0.41;53.72;96501.03;4188926;28;20071;-66
2024/01/30 03:52:54;;;;;;;7.25;4.68;;;;;;;0.28;54.47;96495.44;4190542;28;20407;-66
2024/01/30 03:54:57;;;;;;;5.03;3.75;;;;;;;0.21;53.99;96499.13;4192113;28;20048;-68
2024/01/30 03:56:59;;;;;;;6.78;4.00;;;;;;;0.25;55.98;96498.13;4186119;28;20057;-68
2024/01/30 03:59:02;;;;;;;6.28;3.83;;;;;;;0.42;54.95;96500.13;4180916;28;20214;-68
2024/01/30 04:01:05;;;;;;;5.35;3.67;;;;;;;0.44;53.52;96494.91;4178452;28;20045;-66
2024/01/30 04:03:07;;;;;;;6.83;4.07;;;;;;;0.49;53.36;96491.25;4192991;28;20040;-68
2024/01/30 04:05:10;;;;;;;4.93;3.42;;;;;;;0.52;53.01;96491.19;4194205;28;20048;-65
2024/01/30 04:07:12;;;;;;;6.15;3.90;;;;;;;0.46;53.52;96496.53;4194060;28;20055;-66
2024/01/30 04:09:14;;;;;;;5.57;3.72;;;;;;;0.53;53.48;96492.00;4193906;28;20041;-67
2024/01/30 04:11:19;;;;;;;6.88;3.65;;;;;;;0.49;53.40;96496.41;4196835;28;20060;-67
2024/01/30 04:13:21;;;;;;;5.30;4.05;;;;;;;0.50;53.52;96489.56;4196660;28;20078;-67
2024/01/30 04:15:23;;;;;;;6.43;4.63;;;;;;;0.42;53.14;96494.13;4193977;28;20426;-68
2024/01/30 04:17:25;;;;;;;8.00;5.35;;;;;;;0.28;53.60;96487.72;4194718;28;20128;-67
2024/01/30 04:19:26;;;;;;;7.45;4.45;;;;;;;0.32;53.79;96494.44;4194109;28;20245;-68
2024/01/30 04:21:28;;;;;;;9.75;4.35;;;;;;;0.46;53.59;96493.13;4193504;28;20600;-66
2024/01/30 04:23:30;;;;;;;6.43;4.20;;;;;;;0.53;53.48;96492.84;4195256;28;20048;-66
2024/01/30 04:25:32;;;;;;;7.78;4.53;;;;;;;0.75;52.99;96487.78;4194139;28;20696;-68
2024/01/30 04:27:34;;;;;;;5.13;3.65;;;;;;;0.94;52.61;96494.84;4195424;28;20058;-66
2024/01/30 04:29:36;;;;;;;5.95;4.32;;;;;;;0.87;52.51;96498.56;4191888;28;20409;-68
2024/01/30 04:31:38;;;;;;;6.63;4.43;;;;;;;0.80;53.00;96498.78;4192931;28;20063;-68
2024/01/30 04:33:43;;;;;;;6.85;4.20;;;;;;;0.48;52.81;96511.97;4194644;28;20044;-67
2024/01/30 04:35:45;;;;;;;8.23;4.05;;;;;;;0.46;53.42;96500.88;4188447;28;20094;-67
2024/01/30 04:37:47;;;;;;;8.70;4.13;;;;;;;0.46;53.87;96508.59;4191612;28;20160;-67
2024/01/30 04:39:52;;;;;;;8.13;3.92;;;;;;;0.30;53.75;96501.41;4195256;28;20094;-67
2024/01/30 04:41:54;;;;;;;7.22;4.35;;;;;;;0.17;54.26;96500.97;4181471;28;20125;-68
2024/01/30 04:43:56;;;;;;;8.02;4.13;;;;;;;0.14;54.76;96508.78;4193634;28;20045;-67
2024/01/30 04:45:58;;;;;;;6.32;4.28;;;;;;;0.02;54.27;96510.94;4188592;28;20040;-69
2024/01/30 04:48:01;;;;;;;6.20;3.92;;;;;;;0.04;54.86;96506.56;4195684;28;20053;-68
2024/01/30 04:50:04;;;;;;;9.93;4.03;;;;;;;0.06;54.64;96512.50;4190807;28;20044;-69
2024/01/30 04:52:07;;;;;;;12.10;4.50;;;;;;;0.19;56.77;96513.78;4191978;28;20157;-67
2024/01/30 04:54:09;;;;;;;5.68;4.13;;;;;;;0.20;54.31;96521.47;4189928;28;20055;-69
2024/01/30 04:56:11;;;;;;;7.70;4.65;;;;;;;0.15;53.97;96523.38;4190672;28;20047;-67
2024/01/30 04:58:15;;;;;;;8.18;4.47;;;;;;;-0.03;54.49;96527.38;4191628;28;20534;-66
2024/01/30 05:00:17;;;;;;;5.95;3.90;;;;;;;-0.14;54.30;96529.47;4190032;28;20048;-71
2024/01/30 05:02:19;;;;;;;8.05;4.50;;;;;;;-0.24;54.41;96525.50;4191109;28;20049;-71
2024/01/30 05:04:22;;;;;;;6.43;4.50;;;;;;;-0.29;55.13;96529.94;4186978;28;20068;-68
2024/01/30 05:06:25;;;;;;;12.13;5.10;;;;;;;-0.37;55.61;96529.34;4191520;28;20067;-70
2024/01/30 05:08:29;;;;;;;;;;;;;;;-0.39;55.61;96525.97;4189307;28;20057;-69
2024/01/30 05:10:33;;;;;;;6.30;4.28;;;;;;;-0.47;55.89;96537.34;4195568;28;20012;-68
2024/01/30 05:12:35;;;;;;;8.38;4.50;;;;;;;-0.67;56.59;96532.81;4195553;28;20055;-69
2024/01/30 05:14:37;;;;;;;12.23;5.22;;;;;;;-0.71;57.22;96541.53;4194770;28;20062;-69
2024/01/30 05:16:39;;;;;;;11.15;5.38;;;;;;;-0.67;57.09;96537.09;4193643;28;20059;-72
2024/01/30 05:18:41;;;;;;;8.13;5.30;;;;;;;-0.65;56.92;96537.91;4177880;28;20672;-69
2024/01/30 05:20:43;;;;;;;7.32;4.85;;;;;;;-0.70;57.29;96537.22;4188275;28;20056;-68
2024/01/30 05:22:45;;;;;;;11.13;5.05;;;;;;;-0.63;57.27;96536.13;4188016;28;20345;-68
2024/01/30 05:24:50;;;;;;;10.25;4.90;;;;;;;-0.49;56.99;96540.88;4191218;28;20181;-70
2024/01/30 05:26:52;;;;;;;9.05;5.63;;;;;;;-0.37;56.70;96545.63;4192283;28;20056;-69
2024/01/30 05:28:59;;;;;;;11.60;6.88;;;;;;;-0.32;56.36;96535.19;4192802;28;20474;-69
2024/01/30 05:31:01;;;;;;;22.00;10.77;;;;;;;-0.24;56.42;96541.81;4183726;28;20115;-70
2024/01/30 05:33:04;;;;;;;17.95;7.88;;;;;;;-0.14;56.09;96531.19;4185179;28;20080;-69
2024/01/30 05:35:07;;;;;;;12.93;5.72;;;;;;;-0.16;56.13;96538.13;4194633;28;20044;-70
2024/01/30 05:37:14;;;;;;;13.65;6.13;;;;;;;-0.23;55.96;96533.19;4192043;28;20041;-69
2024/01/30 05:39:16;;;;;;;8.85;5.38;;;;;;;-0.26;56.61;96535.00;4192300;28;20079;-68
2024/01/30 05:41:20;;;;;;;10.15;5.20;;;;;;;-0.22;56.13;96542.56;4183853;28;20697;-69
2024/01/30 05:43:25;;;;;;;10.15;5.93;;;;;;;-0.15;56.03;96540.69;4187291;28;20054;-69
2024/01/30 05:45:27;;;;;;;11.57;5.93;;;;;;;-0.19;56.19;96533.06;4193799;28;20049;-68
2024/01/30 05:47:29;;;;;;;9.48;5.60;;;;;;;-0.27;55.97;96533.31;4188808;28;20069;-69
2024/01/30 05:49:31;;;;;;;10.40;5.47;;;;;;;-0.23;56.65;96535.75;4194415;28;20072;-69
2024/01/30 05:51:33;;;;;;;12.85;6.20;;;;;;;-0.13;55.91;96538.88;4192609;28;20086;-68
2024/01/30 05:53:38;;;;;;;11.30;6.03;;;;;;;-0.11;55.33;96534.50;4192331;28;20052;-69
2024/01/30 05:55:49;;;;;;;11.38;5.88;;;;;;;0.01;56.52;96537.59;4191635;28;20077;-70
2024/01/30 05:57:52;;;;;;;12.02;5.88;;;;;;;0.04;55.17;96538.31;4187024;28;20045;-68
2024/01/30 05:59:54;;;;;;;8.35;4.93;;;;;;;0.14;54.58;96536.31;4193181;28;20419;-70
2024/01/30 06:01:56;;;;;;;11.00;6.00;;;;;;;0.27;54.73;96531.59;4191565;28;20048;-71
2024/01/30 06:04:01;;;;;;;9.20;5.88;;;;;;;0.42;54.41;96523.31;4194467;28;20475;-70
2024/01/30 06:06:08;;;;;;;14.02;6.28;;;;;;;0.51;53.88;96535.88;4182123;28;20170;-70
2024/01/30 06:08:11;;;;;;;17.17;6.18;;;;;;;0.58;53.56;96532.22;4186155;28;20131;-69
2024/01/30 06:10:13;;;;;;;11.50;5.80;;;;;;;0.64;53.42;96530.31;4187431;28;20102;-70
2024/01/30 06:12:15;;;;;;;13.70;5.80;;;;;;;0.68;52.80;96532.72;4192793;28;20487;-70
2024/01/30 06:14:18;;;;;;;10.43;5.72;;;;;;;0.34;53.04;96533.88;4180467;28;20420;-69
2024/01/30 06:16:21;;;;;;;11.63;5.05;;;;;;;0.25;53.18;96535.94;4189679;28;20479;-69
2024/01/30 06:18:26;;;;;;;16.80;5.15;;;;;;;0.01;54.17;96542.75;4195268;28;20049;-68
2024/01/30 06:20:28;;;;;;;7.97;5.20;;;;;;;-0.09;54.17;96540.44;4192507;28;20080;-70
2024/01/30 06:22:30;;;;;;;10.32;5.50;;;;;;;-0.31;54.88;96540.28;4190873;28;20045;-69
2024/01/30 06:24:33;;;;;;;15.93;5.30;;;;;;;-0.32;54.70;96538.63;4190715;28;20056;-70
2024/01/30 06:26:36;;;;;;;11.75;4.95;;;;;;;-0.31;54.87;96549.75;4182182;28;20048;-69
2024/01/30 06:28:39;;;;;;;12.18;5.40;;;;;;;-0.41;55.05;96551.75;4188568;28;20052;-69
2024/01/30 06:30:43;;;;;;;16.00;5.57;;;;;;;-0.23;55.02;96547.78;4189774;28;20414;-70
2024/01/30 06:32:45;;;;;;;9.73;4.95;;;;;;;-0.09;54.45;96555.06;4187698;28;20045;-70
2024/01/30 06:34:50;;;;;;;10.63;4.43;;;;;;;0.13;54.38;96550.06;4185302;28;20071;-70
2024/01/30 06:36:52;;;;;;;11.48;5.13;;;;;;;0.22;53.31;96542.06;4190806;28;20044;-70
2024/01/30 06:38:55;;;;;;;15.95;5.60;;;;;;;0.46;53.52;96547.28;4193860;28;20063;-68
2024/01/30 06:40:58;;;;;;;15.93;5.85;;;;;;;0.69;52.64;96541.31;4185543;28;20475;-70
2024/01/30 06:43:02;;;;;;;11.90;6.30;;;;;;;0.88;52.76;96549.25;4187099;28;20115;-68
2024/01/30 06:45:04;;;;;;;11.23;5.47;;;;;;;1.05;51.55;96546.06;4192336;28;20056;-70
2024/01/30 06:47:07;;;;;;;14.27;5.45;;;;;;;1.08;51.31;96546.81;4188854;28;20073;-68
2024/01/30 06:49:11;;;;;;;11.50;4.97;;;;;;;1.13;51.36;96550.03;4188148;28;20055;-71
2024/01/30 06:51:13;;;;;;;9.32;5.55;;;;;;;1.27;51.05;96551.28;4192921;28;20052;-71
2024/01/30 06:53:18;;;;;;;13.30;6.35;;;;;;;1.37;50.77;96552.63;4181300;28;20419;-69
2024/01/30 06:55:20;;;;;;;9.07;4.50;;;;;;;1.36;49.88;96549.19;4194049;28;20048;-71
2024/01/30 06:57:25;;;;;;;10.18;5.32;;;;;;;1.33;50.10;96551.88;4194336;28;20110;-70
2024/01/30 06:59:27;;;;;;;12.65;6.25;;;;;;;1.22;50.13;96554.88;4192179;28;20041;-70
2024/01/30 07:01:31;;;;;;;12.40;7.03;;;;;;;1.30;50.65;96552.00;4187578;28;20507;-69
2024/01/30 07:03:33;;;;;;;9.88;6.10;;;;;;;1.57;50.36;96554.44;4189214;28;20078;-68
2024/01/30 07:05:35;;;;;;;6.80;4.80;;;;;;;1.68;49.54;96551.44;4187372;28;20084;-68
2024/01/30 07:07:39;;;;;;;8.93;5.28;;;;;;;1.88;49.49;96553.28;4203896;28;20051;-71
2024/01/30 07:09:42;;;;;;;11.50;5.80;;;;;;;2.03;48.59;96563.00;4190110;28;20054;-70
2024/01/30 07:11:46;;;;;;;8.88;5.18;;;;;;;2.09;48.17;96556.72;4193615;28;20053;-71
2024/01/30 07:13:48;;;;;;;8.73;4.78;;;;;;;2.15;48.01;96551.31;4193156;28;20056;-69
2024/01/30 07:15:50;;;;;;;6.32;4.63;;;;;;;1.70;47.65;96555.69;4189612;28;20275;-70
2024/01/30 07:17:53;;;;;;;8.40;4.20;;;;;;;1.34;48.59;96552.75;4192498;28;20044;-70
2024/01/30 07:19:55;;;;;;;7.72;4.57;;;;;;;1.32;49.25;96562.28;4192350;28;20091;-69
2024/01/30 07:21:57;;;;;;;6.68;4.50;;;;;;;1.45;49.42;96558.34;4191895;28;20072;-69
2024/01/30 07:24:00;;;;;;;6.60;4.32;;;;;;;1.58;48.71;96561.31;4187455;28;20041;-70
2024/01/30 07:26:02;;;;;;;5.63;4.47;;;;;;;1.70;48.01;96552.22;4192336;28;20088;-70
2024/01/30 07:28:05;;;;;;;17.83;5.03;;;;;;;1.85;48.04;96559.41;4188990;28;20074;-69
2024/01/30 07:30:07;;;;;;;9.57;4.30;;;;;;;1.85;47.75;96559.41;4187749;28;20450;-68
2024/01/30 07:32:10;;;;;;;9.95;3.47;;;;;;;1.86;47.42;96560.25;4188968;28;20118;-70
2024/01/30 07:34:12;;;;;;;6.63;3.30;;;;;;;1.96;47.18;96557.22;4188991;28;20481;-70
2024/01/30 07:36:17;;;;;;;7.50;3.60;;;;;;;2.07;46.86;96549.03;4188904;28;20408;-71
2024/01/30 07:38:20;;;;;;;7.70;3.47;;;;;;;1.98;46.91;96554.56;4189245;28;20059;-68
2024/01/30 07:40:22;;;;;;;5.38;3.17;;;;;;;1.77;46.89;96557.09;4188490;28;20048;-69
2024/01/30 07:42:24;;;;;;;9.80;3.55;;;;;;;1.78;46.84;96551.03;4192398;28;20410;-71
2024/01/30 07:44:26;;;;;;;6.75;3.33;;;;;;;1.76;47.36;96554.56;4189514;28;20057;-70
2024/01/30 07:46:28;;;;;;;4.88;3.42;;;;;;;1.64;46.86;96556.75;4188043;28;20044;-72
2024/01/30 07:48:31;;;;;;;6.47;3.40;;;;;;;1.50;47.31;96553.84;4190747;28;20102;-71
2024/01/30 07:50:38;;;;;;;5.20;3.72;;;;;;;1.82;47.31;96542.25;4192655;28;20040;-69
2024/01/30 07:52:40;;;;;;;5.05;3.47;;;;;;;2.25;46.67;96537.94;4192970;28;20102;-72
2024/01/30 07:54:43;;;;;;;6.90;3.83;;;;;;;2.53;45.65;96548.88;4184561;28;20048;-71
2024/01/30 07:56:44;;;;;;;5.38;4.10;;;;;;;2.64;44.78;96544.94;4193032;28;20071;-70
2024/01/30 07:58:46;;;;;;;7.75;3.72;;;;;;;2.74;45.10;96549.72;4185895;28;20041;-69
2024/01/30 08:00:51;;;;;;;6.65;3.97;;;;;;;2.41;45.07;96550.22;4188851;28;20048;-70
2024/01/30 08:02:55;;;;;;;8.63;4.53;;;;;;;2.11;45.81;96552.31;4191220;28;20059;-70
2024/01/30 08:04:57;;;;;;;12.05;4.70;;;;;;;2.15;46.04;96549.59;4193291;28;20388;-71
2024/01/30 08:06:59;;;;;;;5.43;4.25;;;;;;;2.23;45.67;96537.16;4175580;28;20132;-70
2024/01/30 08:09:02;;;;;;;5.38;3.80;;;;;;;2.47;45.70;96534.47;4192084;28;20056;-70
2024/01/30 08:11:05;;;;;;;;;;;;;;;2.67;45.14;96539.63;4192094;28;20045;-69
2024/01/30 08:13:08;;;;;;;9.15;4.13;;;;;;;2.84;44.50;96536.34;4194159;28;19924;-70
2024/01/30 08:15:12;;;;;;;8.90;4.15;;;;;;;2.61;44.48;96539.06;4172194;28;20121;-69
2024/01/30 08:17:14;;;;;;;;;;;;;;;2.35;45.22;96535.00;4192491;28;20403;-70
2024/01/30 08:19:16;;;;;;;8.00;4.15;;;;;;;2.15;45.63;96540.97;4194564;28;19954;-67
2024/01/30 08:21:18;;;;;;;8.57;4.25;;;;;;;1.93;45.49;96539.25;4192659;28;20076;-69
2024/01/30 08:23:21;;;;;;;6.55;4.03;;;;;;;2.09;46.53;96543.78;4193707;28;20052;-69
2024/01/30 08:25:25;;;;;;;8.00;4.00;;;;;;;2.05;45.98;96540.50;4191156;28;20053;-67
2024/01/30 08:27:27;;;;;;;6.85;4.45;;;;;;;2.27;45.68;96537.88;4184064;28;20127;-68
2024/01/30 08:29:29;;;;;;;8.90;4.32;;;;;;;2.34;45.69;96534.13;4193399;28;20057;-69
2024/01/30 08:31:35;;;;;;;11.60;5.00;;;;;;;2.21;45.48;96541.56;4190551;28;20045;-67
2024/01/30 08:33:38;;;;;;;9.15;5.70;;;;;;;2.54;45.42;96541.06;4193765;28;20493;-71
2024/01/30 08:35:43;;;;;;;16.83;5.45;;;;;;;2.72;45.27;96549.78;4192313;28;20048;-70
2024/01/30 08:37:47;;;;;;;10.05;4.20;;;;;;;3.02;44.79;96536.44;4186070;28;20041;-69
2024/01/30 08:39:50;;;;;;;6.32;3.50;;;;;;;3.34;44.19;96541.91;4188198;28;20047;-69
2024/01/30 08:41:53;;;;;;;10.77;4.47;;;;;;;3.55;43.84;96547.84;4178684;28;20048;-69
2024/01/30 08:43:56;;;;;;;8.50;4.35;;;;;;;3.43;43.41;96544.91;4193346;28;20368;-69
2024/01/30 08:46:01;;;;;;;9.32;4.63;;;;;;;3.32;43.23;96541.97;4190795;28;20547;-71
2024/01/30 08:48:05;;;;;;;6.70;4.45;;;;;;;3.08;43.89;96543.94;4180835;28;20108;-71
2024/01/30 08:50:07;;;;;;;11.23;5.28;;;;;;;2.66;44.47;96550.88;4179800;28;20273;-69
2024/01/30 08:52:12;;;;;;;10.18;5.15;;;;;;;2.40;45.39;96553.75;4193851;28;20044;-72
2024/01/30 08:54:17;;;;;;;9.30;5.95;;;;;;;2.25;45.44;96555.19;4196718;28;20494;-71
2024/01/30 08:56:22;;;;;;;12.82;6.55;;;;;;;1.80;46.83;96554.38;4194624;28;20060;-71
2024/01/30 08:58:24;;;;;;;;;;;;;;;1.68;47.37;96562.63;4189874;28;20057;-69
2024/01/30 09:00:26;;;;;;;11.32;5.57;;;;;;;1.42;47.57;96566.22;4188143;28;19932;-70
2024/01/30 09:02:28;;;;;;;15.75;8.98;;;;;;;1.10;48.37;96568.25;4187541;28;20532;-70
2024/01/30 09:04:30;;;;;;;8.18;6.05;;;;;;;1.06;48.87;96566.66;4194943;28;20423;-70
2024/01/30 09:06:32;;;;;;;10.43;5.95;;;;;;;1.32;48.30;96564.88;4195780;28;20106;-72
2024/01/30 09:08:34;;;;;;;17.70;7.13;;;;;;;1.29;48.93;96568.41;4184764;28;20087;-71
2024/01/30 09:10:38;;;;;;;11.75;6.03;;;;;;;1.20;49.58;96566.16;4191060;28;20040;-71
2024/01/30 09:12:40;;;;;;;8.73;5.95;;;;;;;1.20;49.74;96571.31;4192076;28;20070;-71
2024/01/30 09:14:42;;;;;;;7.75;5.53;;;;;;;1.43;49.53;96563.56;4189206;28;20102;-71
2024/01/30 09:16:46;;;;;;;11.70;5.97;;;;;;;1.84;48.98;96561.13;4182561;28;20563;-71
2024/01/30 09:18:47;;;;;;;11.73;5.72;;;;;;;1.74;48.74;96561.53;4193031;28;20044;-70
2024/01/30 09:20:50;;;;;;;7.03;5.05;;;;;;;1.94;49.37;96555.63;4190869;28;20040;-69
2024/01/30 09:22:52;;;;;;;9.93;5.85;;;;;;;2.12;49.22;96554.03;4194901;28;20040;-69
2024/01/30 09:24:54;;;;;;;10.18;5.60;;;;;;;2.18;49.17;96548.63;4190344;28;20056;-72
2024/01/30 09:26:58;;;;;;;11.52;5.78;;;;;;;2.26;49.11;96543.97;4191332;28;20090;-70
2024/01/30 09:29:00;;;;;;;6.85;5.10;;;;;;;2.07;48.96;96540.47;4194329;28;20158;-69
2024/01/30 09:31:03;;;;;;;15.25;5.22;;;;;;;1.72;49.44;96548.72;4186995;28;20048;-71
2024/01/30 09:33:06;;;;;;;6.85;4.72;;;;;;;1.82;49.36;96544.84;4188786;28;20049;-68
2024/01/30 09:35:09;;;;;;;6.93;4.43;;;;;;;2.13;48.46;96542.75;4186067;28;20048;-70
2024/01/30 09:37:15;;;;;;;6.68;4.70;;;;;;;2.51;47.97;96541.19;4192052;28;20056;-67
2024/01/30 09:39:20;;;;;;;7.38;4.30;;;;;;;2.53;47.87;96534.19;4191857;28;20045;-70
2024/01/30 09:41:24;;;;;;;7.03;5.00;;;;;;;2.28;48.48;96536.13;4168871;28;20049;-71